createdAt,value
2019-03-20T00:01:44.118Z,6.53
2019-03-20T00:04:12.496Z,6.80
2019-03-20T00:06:40.808Z,6.60
2019-03-20T00:09:09.061Z,6.87
2019-03-20T00:11:37.296Z,7.10
2019-03-20T00:14:05.515Z,7.37
2019-03-20T00:16:33.786Z,7.10
2019-03-20T00:19:01.997Z,6.70
2019-03-20T00:21:30.244Z,7.27
2019-03-20T00:23:58.461Z,7.10
2019-03-20T00:26:26.700Z,6.50
2019-03-20T00:28:55.189Z,7.03
2019-03-20T00:31:23.473Z,6.37
2019-03-20T00:33:51.725Z,6.67
2019-03-20T00:36:20.002Z,7.23
2019-03-20T00:38:48.218Z,6.87
2019-03-20T00:41:16.468Z,6.77
2019-03-20T00:43:44.726Z,6.87
2019-03-20T00:46:12.964Z,6.63
2019-03-20T00:48:41.215Z,7.17
2019-03-20T00:51:09.456Z,6.73
2019-03-20T00:53:37.669Z,6.77
2019-03-20T00:56:05.946Z,6.03
2019-03-20T00:58:34.170Z,6.53
2019-03-20T01:01:02.485Z,7.07
2019-03-20T01:03:30.708Z,7.33
2019-03-20T01:05:58.924Z,6.90
2019-03-20T01:08:27.172Z,7.23
2019-03-20T01:10:55.393Z,6.40
2019-03-20T01:13:23.750Z,6.77
2019-03-20T01:15:51.951Z,6.67
2019-03-20T01:18:22.379Z,7.50
2019-03-20T01:20:50.076Z,12.57
2019-03-20T01:23:18.396Z,11.90
2019-03-20T01:25:46.616Z,12.30
2019-03-20T01:28:14.864Z,11.37
2019-03-20T01:30:43.075Z,8.63
2019-03-20T01:33:14.464Z,8.47
2019-03-20T01:35:42.704Z,7.90
2019-03-20T01:38:11.157Z,7.37
2019-03-20T01:40:40.571Z,7.87
2019-03-20T01:43:09.281Z,7.40
2019-03-20T01:45:37.535Z,7.83
2019-03-20T01:48:05.773Z,6.27
2019-03-20T01:50:34.026Z,6.33
2019-03-20T01:53:02.339Z,6.43
2019-03-20T01:55:30.564Z,7.43
2019-03-20T01:57:58.806Z,6.87
2019-03-20T02:00:27.046Z,6.47
2019-03-20T02:02:55.305Z,7.07
2019-03-20T02:05:34.657Z,7.43
2019-03-20T02:07:53.467Z,6.73
2019-03-20T02:10:21.680Z,7.07
2019-03-20T02:12:49.931Z,6.23
2019-03-20T02:15:18.510Z,6.47
2019-03-20T02:17:46.835Z,6.80
2019-03-20T02:20:16.594Z,6.80
2019-03-20T02:22:44.837Z,6.67
2019-03-20T02:25:13.355Z,7.33
2019-03-20T02:27:41.574Z,6.63
2019-03-20T02:30:17.052Z,6.97
2019-03-20T02:32:45.338Z,7.17
2019-03-20T02:35:13.658Z,6.93
2019-03-20T02:37:41.885Z,6.80
2019-03-20T02:40:11.672Z,8.07
2019-03-20T02:42:39.901Z,6.93
2019-03-20T02:45:09.525Z,6.87
2019-03-20T02:47:37.912Z,6.23
2019-03-20T02:50:07.338Z,7.40
2019-03-20T02:52:35.621Z,6.97
2019-03-20T02:55:04.557Z,6.67
2019-03-20T02:57:32.784Z,6.77
2019-03-20T03:00:01.028Z,6.30
2019-03-20T03:02:29.257Z,6.53
2019-03-20T03:05:00.450Z,5.97
2019-03-20T03:07:28.636Z,6.67
2019-03-20T03:09:56.895Z,6.73
2019-03-20T03:12:25.098Z,6.50
2019-03-20T03:14:53.422Z,6.87
2019-03-20T03:17:21.638Z,6.60
2019-03-20T03:19:49.881Z,6.47
2019-03-20T03:22:18.099Z,6.30
2019-03-20T03:24:46.346Z,6.43
2019-03-20T03:27:14.565Z,5.80
2019-03-20T03:29:42.823Z,6.00
2019-03-20T03:32:11.047Z,7.07
2019-03-20T03:34:39.286Z,6.17
2019-03-20T03:37:07.506Z,5.83
2019-03-20T03:39:35.718Z,6.13
2019-03-20T03:42:04.044Z,6.80
2019-03-20T03:44:32.243Z,6.60
2019-03-20T03:47:00.489Z,5.80
2019-03-20T03:49:28.707Z,6.47
2019-03-20T03:51:56.953Z,6.93
2019-03-20T03:54:25.174Z,5.60
2019-03-20T03:56:53.889Z,6.30
2019-03-20T03:59:22.119Z,6.93
2019-03-20T04:01:50.360Z,5.97
2019-03-20T04:04:18.583Z,6.27
2019-03-20T04:06:46.889Z,6.97
2019-03-20T04:09:15.111Z,6.97
2019-03-20T04:11:43.350Z,6.70
2019-03-20T04:14:11.574Z,7.30
2019-03-20T04:16:39.824Z,6.87
2019-03-20T04:19:08.042Z,6.47
2019-03-20T04:21:36.289Z,6.40
2019-03-20T04:24:04.580Z,6.50
2019-03-20T04:26:32.825Z,6.80
2019-03-20T04:29:01.050Z,6.33
2019-03-20T04:31:29.293Z,6.13
2019-03-20T04:33:57.803Z,7.03
2019-03-20T04:36:26.160Z,6.20
2019-03-20T04:38:54.377Z,7.43
2019-03-20T04:41:22.621Z,7.77
2019-03-20T04:43:50.845Z,8.60
2019-03-20T04:46:19.093Z,8.30
2019-03-20T04:48:47.312Z,6.87
2019-03-20T04:51:15.563Z,7.20
2019-03-20T04:53:43.776Z,6.60
2019-03-20T04:56:12.021Z,6.80
2019-03-20T04:58:40.237Z,6.50
2019-03-20T05:01:08.490Z,6.33
2019-03-20T05:03:36.713Z,7.27
2019-03-20T05:06:04.928Z,7.77
2019-03-20T05:08:33.177Z,8.73
2019-03-20T05:11:01.400Z,7.67
2019-03-20T05:13:29.644Z,7.60
2019-03-20T05:15:57.865Z,7.50
2019-03-20T05:18:26.121Z,7.43
2019-03-20T05:20:54.335Z,7.50
2019-03-20T05:23:22.589Z,6.13
2019-03-20T05:25:50.810Z,6.70
2019-03-20T05:28:19.061Z,7.43
2019-03-20T05:30:47.281Z,7.73
2019-03-20T05:33:15.554Z,7.57
2019-03-20T05:35:43.844Z,8.03
2019-03-20T05:38:12.080Z,8.17
2019-03-20T05:40:40.301Z,8.43
2019-03-20T05:43:08.552Z,7.57
2019-03-20T05:45:36.773Z,7.20
2019-03-20T05:48:05.024Z,7.77
2019-03-20T05:50:33.240Z,8.10
2019-03-20T05:53:01.484Z,9.40
2019-03-20T05:55:29.708Z,8.87
2019-03-20T05:57:57.993Z,10.17
2019-03-20T06:00:27.826Z,11.30
2019-03-20T06:02:56.077Z,11.13
2019-03-20T06:05:24.437Z,9.07
2019-03-20T06:07:52.685Z,10.80
2019-03-20T06:10:20.904Z,11.07
2019-03-20T06:12:49.125Z,9.80
2019-03-20T06:15:17.369Z,8.33
2019-03-20T06:17:46.865Z,7.13
2019-03-20T06:20:15.400Z,6.97
2019-03-20T06:22:43.617Z,7.10
2019-03-20T06:25:15.365Z,7.70
2019-03-20T06:27:43.589Z,7.30
2019-03-20T06:30:15.320Z,7.43
2019-03-20T06:32:43.541Z,7.00
2019-03-20T06:35:12.152Z,7.33
2019-03-20T06:37:40.372Z,7.67
2019-03-20T06:40:10.157Z,6.63
2019-03-20T06:42:38.364Z,6.10
2019-03-20T06:45:08.156Z,7.00
2019-03-20T06:47:36.372Z,7.43
2019-03-20T06:50:06.160Z,7.40
2019-03-20T06:52:34.381Z,7.17
2019-03-20T06:55:02.802Z,7.67
2019-03-20T06:57:31.016Z,7.87
2019-03-20T07:00:00.800Z,7.53
2019-03-20T07:02:28.917Z,7.37
2019-03-20T07:05:15.441Z,7.37
2019-03-20T07:07:44.574Z,7.47
2019-03-20T07:10:17.550Z,7.20
2019-03-20T07:12:45.764Z,7.43
2019-03-20T07:15:14.010Z,7.43
2019-03-20T07:17:42.237Z,6.93
2019-03-20T07:20:10.944Z,7.63
2019-03-20T07:22:39.157Z,6.97
2019-03-20T07:25:07.977Z,7.63
2019-03-20T07:27:36.195Z,7.87
2019-03-20T07:30:06.109Z,7.20
2019-03-20T07:32:34.345Z,7.43
2019-03-20T07:35:02.601Z,8.67
2019-03-20T07:37:30.812Z,6.67
2019-03-20T07:39:59.063Z,7.37
2019-03-20T07:42:27.274Z,6.87
2019-03-20T07:44:55.520Z,6.53
2019-03-20T07:47:23.745Z,7.30
2019-03-20T07:49:51.987Z,6.17
2019-03-20T07:52:20.201Z,7.00
2019-03-20T07:54:48.445Z,6.10
2019-03-20T07:57:16.657Z,6.60
2019-03-20T07:59:44.904Z,6.60
2019-03-20T08:02:13.458Z,6.43
2019-03-20T08:04:41.717Z,6.53
2019-03-20T08:07:10.308Z,6.07
2019-03-20T08:09:38.893Z,4.83
2019-03-20T08:12:07.600Z,5.60
2019-03-20T08:14:35.813Z,5.47
2019-03-20T08:17:04.120Z,5.20
2019-03-20T08:19:32.334Z,4.50
2019-03-20T08:22:00.901Z,4.83
2019-03-20T08:24:29.452Z,4.85
2019-03-20T08:26:58.013Z,4.57
2019-03-20T08:29:26.548Z,4.30
2019-03-20T08:31:55.112Z,4.07
2019-03-20T08:34:23.653Z,4.27
2019-03-20T08:36:51.888Z,3.67
2019-03-20T08:39:20.427Z,4.43
2019-03-20T08:44:35.480Z,4.00
2019-03-20T08:47:04.151Z,4.20
2019-03-20T08:49:32.399Z,3.90
2019-03-20T08:52:01.004Z,4.17
2019-03-20T08:54:29.528Z,3.90
2019-03-20T08:56:58.096Z,4.53
2019-03-20T08:59:26.690Z,3.97
2019-03-20T09:01:55.304Z,4.20
2019-03-20T09:04:23.853Z,4.17
2019-03-20T09:06:52.416Z,4.20
2019-03-20T09:09:20.961Z,3.53
2019-03-20T09:11:49.528Z,4.03
2019-03-20T09:14:18.119Z,4.23
2019-03-20T09:16:46.720Z,4.20
2019-03-20T09:19:15.244Z,3.70
2019-03-20T09:21:43.818Z,3.27
2019-03-20T09:24:12.429Z,3.70
2019-03-20T09:26:41.001Z,3.43
2019-03-20T09:29:18.235Z,3.53
2019-03-20T09:31:39.825Z,3.43
2019-03-20T09:34:08.361Z,3.40
2019-03-20T09:36:43.120Z,2.77
2019-03-20T09:39:07.757Z,3.13
2019-03-20T09:41:36.324Z,2.73
2019-03-20T09:44:05.005Z,2.60
2019-03-20T09:46:33.584Z,2.73
2019-03-20T09:49:02.124Z,2.93
2019-03-20T09:51:30.664Z,3.20
2019-03-20T09:53:59.232Z,2.60
2019-03-20T09:56:27.445Z,2.20
2019-03-20T09:58:56.007Z,2.57
2019-03-20T10:01:25.431Z,2.27
2019-03-20T10:03:54.001Z,2.53
2019-03-20T10:06:22.537Z,2.40
2019-03-20T10:08:54.351Z,2.57
2019-03-20T10:11:21.343Z,2.77
2019-03-20T10:13:49.983Z,2.47
2019-03-20T10:16:18.468Z,2.70
2019-03-20T10:18:47.088Z,2.83
2019-03-20T10:21:15.663Z,2.20
2019-03-20T10:23:44.221Z,2.80
2019-03-20T10:26:12.488Z,2.37
2019-03-20T10:28:41.045Z,2.30
2019-03-20T10:31:09.596Z,2.37
2019-03-20T10:33:37.832Z,2.77
2019-03-20T10:36:06.377Z,2.40
2019-03-20T10:38:34.950Z,2.17
2019-03-20T10:41:03.635Z,2.70
2019-03-20T10:43:32.248Z,2.80
2019-03-20T10:46:00.507Z,2.53
2019-03-20T10:48:29.105Z,2.40
2019-03-20T10:50:57.690Z,2.73
2019-03-20T10:53:26.286Z,2.40
2019-03-20T10:55:54.868Z,2.70
2019-03-20T10:58:23.463Z,2.17
2019-03-20T11:00:52.046Z,2.53
2019-03-20T11:03:20.723Z,2.60
2019-03-20T11:05:49.368Z,4.70
2019-03-20T11:08:18.051Z,4.37
2019-03-20T11:10:46.703Z,2.40
2019-03-20T11:13:15.308Z,2.60
2019-03-20T11:15:43.884Z,2.70
2019-03-20T11:18:12.458Z,3.30
2019-03-20T11:20:41.065Z,2.70
2019-03-20T11:23:09.644Z,2.40
2019-03-20T11:25:38.243Z,2.70
2019-03-20T11:28:06.816Z,2.87
2019-03-20T11:30:35.424Z,2.40
2019-03-20T11:33:04.144Z,2.73
2019-03-20T11:35:32.813Z,2.83
2019-03-20T11:38:01.469Z,2.40
2019-03-20T11:40:40.167Z,2.27
2019-03-20T11:43:08.737Z,3.17
2019-03-20T11:45:37.349Z,2.40
2019-03-20T11:48:06.005Z,2.63
2019-03-20T11:50:46.852Z,2.60
2019-03-20T11:53:15.428Z,2.30
2019-03-20T11:55:43.712Z,2.37
2019-03-20T11:58:12.360Z,2.27
2019-03-20T12:00:41.088Z,2.23
2019-03-20T12:03:09.339Z,2.17
2019-03-20T12:05:38.013Z,2.23
2019-03-20T12:08:06.597Z,2.03
2019-03-20T12:10:35.349Z,2.37
2019-03-20T12:13:03.992Z,2.30
2019-03-20T12:15:32.669Z,2.13
2019-03-20T12:18:01.401Z,2.50
2019-03-20T12:20:29.981Z,2.40
2019-03-20T12:22:58.561Z,2.40
2019-03-20T12:25:33.889Z,2.23
2019-03-20T12:28:02.591Z,2.57
2019-03-20T12:30:33.505Z,2.20
2019-03-20T12:33:02.181Z,2.33
2019-03-20T12:35:45.345Z,2.50
2019-03-20T12:38:15.289Z,2.57
2019-03-20T12:40:44.304Z,2.10
2019-03-20T12:43:13.058Z,2.33
2019-03-20T12:45:41.728Z,2.20
2019-03-20T12:48:18.304Z,1.97
2019-03-20T12:50:46.981Z,2.10
2019-03-20T12:53:18.702Z,2.33
2019-03-20T12:55:47.313Z,2.23
2019-03-20T12:58:15.889Z,2.13
2019-03-20T13:05:40.350Z,2.60
2019-03-20T13:08:08.953Z,2.63
2019-03-20T13:10:37.533Z,2.83
2019-03-20T13:13:06.224Z,2.30
2019-03-20T13:15:34.932Z,2.80
2019-03-20T13:18:03.531Z,2.03
2019-03-20T13:20:32.120Z,2.30
2019-03-20T13:23:06.900Z,2.20
2019-03-20T13:25:35.615Z,2.23
2019-03-20T13:28:04.561Z,2.30
2019-03-20T13:31:00.251Z,2.17
2019-03-20T13:33:28.851Z,2.40
2019-03-20T13:35:57.429Z,2.70
2019-03-20T13:38:26.173Z,2.43
2019-03-20T13:40:54.752Z,2.33
2019-03-20T13:43:23.357Z,2.60
2019-03-20T13:45:52.004Z,2.10
2019-03-20T13:48:20.608Z,2.70
2019-03-20T13:50:49.256Z,2.33
2019-03-20T13:53:17.540Z,2.17
2019-03-20T13:55:46.121Z,2.40
2019-03-20T13:58:14.724Z,2.80
2019-03-20T14:00:43.508Z,2.93
2019-03-20T14:03:12.116Z,2.67
2019-03-20T14:05:40.716Z,2.33
2019-03-20T14:08:09.304Z,2.10
2019-03-20T14:10:49.611Z,2.20
2019-03-20T14:13:08.316Z,2.10
2019-03-20T14:15:37.032Z,2.50
2019-03-20T14:18:05.779Z,2.00
2019-03-20T14:20:34.436Z,2.52
2019-03-20T14:23:03.048Z,2.20
2019-03-20T14:25:31.623Z,2.50
2019-03-20T14:28:00.232Z,2.53
2019-03-20T14:30:33.065Z,2.20
2019-03-20T14:33:01.825Z,2.40
2019-03-20T14:35:30.472Z,2.50
2019-03-20T14:37:59.083Z,3.07
2019-03-20T14:40:36.094Z,2.40
2019-03-20T14:43:00.136Z,2.40
2019-03-20T14:45:28.782Z,2.77
2019-03-20T14:47:57.560Z,2.60
2019-03-20T14:50:28.244Z,2.37
2019-03-20T14:52:56.934Z,2.40
2019-03-20T14:55:25.653Z,2.50
2019-03-20T14:57:54.296Z,2.30
2019-03-20T15:00:27.725Z,2.53
2019-03-20T15:02:56.446Z,2.67
2019-03-20T15:05:25.192Z,2.53
2019-03-20T15:07:53.844Z,2.80
2019-03-20T15:10:26.286Z,2.87
2019-03-20T15:12:55.599Z,2.63
2019-03-20T15:15:36.403Z,2.83
2019-03-20T15:18:06.129Z,2.10
2019-03-20T15:20:34.804Z,2.60
2019-03-20T15:23:03.068Z,2.57
2019-03-20T15:25:31.675Z,2.57
2019-03-20T15:28:00.319Z,2.23
2019-03-20T15:30:29.792Z,2.40
2019-03-20T15:32:58.551Z,2.60
2019-03-20T15:35:27.230Z,2.63
2019-03-20T15:37:55.803Z,2.30
2019-03-20T15:40:31.231Z,2.37
2019-03-20T15:42:59.880Z,3.07
2019-03-20T15:45:28.568Z,2.57
2019-03-20T15:47:57.196Z,2.90
2019-03-20T15:50:27.397Z,2.60
2019-03-20T15:52:56.046Z,2.13
2019-03-20T15:55:35.908Z,2.40
2019-03-20T15:58:04.728Z,2.40
2019-03-20T16:00:33.341Z,2.63
2019-03-20T16:03:05.058Z,2.70
2019-03-20T16:05:33.677Z,2.80
2019-03-20T16:08:01.990Z,2.97
2019-03-20T16:10:30.596Z,2.40
2019-03-20T16:12:59.308Z,2.50
2019-03-20T16:15:27.985Z,2.70
2019-03-20T16:17:56.565Z,2.40
2019-03-20T16:20:25.233Z,2.90
2019-03-20T16:22:53.807Z,2.73
2019-03-20T16:25:23.546Z,2.70
2019-03-20T16:27:52.392Z,2.57
2019-03-20T16:30:23.599Z,2.50
2019-03-20T16:32:52.321Z,2.70
2019-03-20T16:35:21.064Z,2.70
2019-03-20T16:37:49.711Z,2.53
2019-03-20T16:40:20.837Z,3.20
2019-03-20T16:42:49.578Z,3.60
2019-03-20T16:45:23.544Z,3.20
2019-03-20T16:47:51.799Z,3.13
2019-03-20T16:50:20.649Z,3.10
2019-03-20T16:52:49.287Z,2.90
2019-03-20T16:55:17.903Z,2.83
2019-03-20T16:57:46.540Z,2.50
2019-03-20T17:00:31.684Z,3.27
2019-03-20T17:03:00.396Z,4.17
2019-03-20T17:05:30.349Z,3.50
2019-03-20T17:07:58.602Z,2.83
2019-03-20T17:10:35.848Z,3.03
2019-03-20T17:13:05.536Z,5.17
2019-03-20T17:15:41.703Z,3.53
2019-03-20T17:18:10.420Z,2.90
2019-03-20T17:20:39.036Z,2.80
2019-03-20T17:23:08.123Z,3.43
2019-03-20T17:25:36.847Z,7.80
2019-03-20T17:28:06.472Z,8.10
2019-03-20T17:30:35.900Z,8.80
2019-03-20T17:33:05.548Z,5.90
2019-03-20T17:35:34.187Z,5.00
2019-03-20T17:38:02.468Z,5.43
2019-03-20T17:40:31.127Z,6.20
2019-03-20T17:42:59.795Z,6.27
2019-03-20T17:45:29.715Z,5.97
2019-03-20T17:47:58.392Z,5.40
2019-03-20T17:50:33.727Z,5.53
2019-03-20T17:53:03.178Z,5.13
2019-03-20T17:55:31.820Z,5.17
2019-03-20T17:58:00.496Z,5.33
2019-03-20T18:00:53.255Z,4.80
2019-03-20T18:03:21.856Z,4.60
2019-03-20T18:05:50.441Z,4.90
2019-03-20T18:08:19.042Z,4.23
2019-03-20T18:10:47.623Z,4.67
2019-03-20T18:13:16.224Z,4.17
2019-03-20T18:15:45.646Z,4.87
2019-03-20T18:18:14.375Z,4.53
2019-03-20T18:20:43.027Z,3.83
2019-03-20T18:23:11.773Z,3.30
2019-03-20T18:25:40.343Z,2.83
2019-03-20T18:28:08.948Z,3.33
2019-03-20T18:30:42.312Z,3.50
2019-03-20T18:33:10.983Z,2.97
2019-03-20T18:35:39.562Z,2.40
2019-03-20T18:38:08.812Z,3.10
2019-03-20T18:40:37.383Z,3.30
2019-03-20T18:43:06.079Z,3.57
2019-03-20T18:45:34.614Z,3.90
2019-03-20T18:48:02.853Z,4.30
2019-03-20T18:50:31.439Z,4.73
2019-03-20T18:53:00.061Z,6.10
2019-03-20T18:55:28.601Z,4.17
2019-03-20T18:57:57.332Z,3.60
2019-03-20T19:00:27.518Z,3.70
2019-03-20T19:02:58.689Z,3.60
2019-03-20T19:05:45.570Z,3.40
2019-03-20T19:08:14.359Z,3.23
2019-03-20T19:10:43.005Z,3.30
2019-03-20T19:13:11.547Z,3.57
2019-03-20T19:15:40.128Z,3.83
2019-03-20T19:18:08.770Z,3.53
2019-03-20T19:20:37.376Z,3.33
2019-03-20T19:23:05.945Z,3.60
2019-03-20T19:25:34.485Z,3.50
2019-03-20T19:28:03.094Z,3.43
2019-03-20T19:30:31.669Z,4.37
2019-03-20T19:33:00.271Z,4.20
2019-03-20T19:35:28.834Z,4.60
2019-03-20T19:37:57.373Z,4.27
2019-03-20T19:40:25.941Z,3.53
2019-03-20T19:42:54.225Z,3.70
2019-03-20T19:45:22.856Z,4.60
2019-03-20T19:47:51.533Z,5.63
2019-03-20T19:50:24.085Z,5.73
2019-03-20T19:52:52.763Z,5.47
2019-03-20T19:55:21.480Z,6.50
2019-03-20T19:57:50.085Z,5.33
2019-03-20T20:00:28.103Z,6.73
2019-03-20T20:02:56.714Z,7.00
2019-03-20T20:05:25.349Z,5.63
2019-03-20T20:07:53.897Z,6.20
2019-03-20T20:10:22.475Z,4.97
2019-03-20T20:12:51.013Z,4.50
2019-03-20T20:15:27.089Z,3.57
2019-03-20T20:17:55.374Z,3.43
2019-03-20T20:20:25.481Z,3.67
2019-03-20T20:22:54.012Z,4.27
2019-03-20T20:25:22.582Z,4.60
2019-03-20T20:27:51.190Z,4.03
2019-03-20T20:30:20.442Z,5.00
2019-03-20T20:32:49.045Z,5.50
2019-03-20T20:35:17.949Z,4.77
2019-03-20T20:37:47.424Z,3.90
2019-03-20T20:40:24.857Z,3.73
2019-03-20T20:42:53.397Z,4.60
2019-03-20T20:45:22.033Z,5.50
2019-03-20T20:47:50.708Z,7.15
2019-03-20T20:50:19.425Z,7.87
2019-03-20T20:52:47.709Z,7.87
2019-03-20T20:55:18.690Z,5.93
2019-03-20T20:57:47.303Z,4.57
2019-03-20T21:00:21.033Z,8.07
2019-03-20T21:02:50.009Z,6.27
2019-03-20T21:05:37.593Z,6.50
2019-03-20T21:08:06.132Z,5.03
2019-03-20T21:10:34.705Z,4.87
2019-03-20T21:13:02.985Z,4.67
2019-03-20T21:15:38.501Z,4.53
2019-03-20T21:18:15.971Z,4.97
2019-03-20T21:20:44.980Z,5.43
2019-03-20T21:23:37.890Z,5.00
2019-03-20T21:26:22.937Z,3.67
2019-03-20T21:28:52.691Z,4.17
2019-03-20T21:31:22.600Z,3.70
2019-03-20T21:33:52.357Z,5.00
2019-03-20T21:36:43.537Z,4.90
2019-03-20T21:39:11.752Z,4.50
2019-03-20T21:41:50.754Z,4.07
2019-03-20T21:44:36.988Z,3.07
2019-03-20T21:47:09.455Z,3.80
2019-03-20T21:49:37.669Z,4.00
2019-03-20T21:52:05.909Z,4.30
2019-03-20T21:54:44.448Z,4.03
2019-03-20T21:57:14.220Z,4.93
2019-03-20T21:59:50.176Z,4.23
2019-03-20T22:02:19.955Z,4.47
2019-03-20T22:04:48.668Z,4.57
2019-03-20T22:07:17.234Z,4.80
2019-03-20T22:09:54.611Z,4.33
2019-03-20T22:12:45.720Z,4.13
2019-03-20T22:15:26.460Z,3.97
2019-03-20T22:18:31.281Z,4.10
2019-03-20T22:21:01.075Z,4.17
2019-03-20T22:23:39.789Z,4.50
2019-03-20T22:26:15.224Z,4.63
2019-03-20T22:29:03.169Z,6.20
2019-03-20T22:31:32.922Z,4.40
2019-03-20T22:34:19.364Z,5.27
2019-03-20T22:36:47.607Z,5.27
2019-03-20T22:39:34.001Z,4.80
2019-03-20T22:42:03.775Z,4.30
2019-03-20T22:44:32.455Z,4.83
2019-03-20T22:47:02.233Z,4.97
2019-03-20T22:49:31.988Z,4.20
2019-03-20T22:52:20.078Z,4.80
2019-03-20T22:55:08.217Z,4.50
2019-03-20T22:57:40.951Z,4.10
2019-03-20T23:00:09.935Z,5.10
2019-03-20T23:02:44.380Z,4.57
2019-03-20T23:05:12.595Z,5.23
2019-03-20T23:07:40.840Z,4.90
2019-03-20T23:10:13.735Z,4.87
2019-03-20T23:12:41.977Z,4.43
2019-03-20T23:15:12.061Z,4.43
2019-03-20T23:17:40.299Z,4.70
2019-03-20T23:20:10.049Z,4.70
2019-03-20T23:22:38.299Z,4.60
2019-03-20T23:25:08.045Z,4.60
2019-03-20T23:27:36.258Z,5.23
2019-03-20T23:30:06.036Z,4.30
2019-03-20T23:32:34.244Z,4.00
2019-03-20T23:35:02.488Z,4.67
2019-03-20T23:37:30.696Z,4.40
2019-03-20T23:39:58.933Z,4.30
2019-03-20T23:42:27.136Z,4.53
2019-03-20T23:44:55.388Z,5.07
2019-03-20T23:47:25.132Z,4.57
2019-03-20T23:49:53.372Z,5.00
2019-03-20T23:52:21.586Z,5.07
2019-03-20T23:54:49.828Z,5.30
2019-03-20T23:57:18.049Z,4.87
2019-03-20T23:59:46.292Z,5.33
